Weather at Bauerfield International Airport

Public forecast

Using degrees Celsius for public forecast. Weather courtesy of forecast.io.

Current aviation weather report (METAR) for Bauerfield International Airport

2024/06/22 09:00 (retrieved 23 minutes ago)

NVVV 220900Z VRB01KT 9999 SCT020 OVC040 21/20 Q1014

Aviation forecast (TAF) for Bauerfield International Airport

2024/06/22 06:12 (retrieved 3 hours ago)

TAF NVVV 220500Z 2206/2306 09005KT 9999 SCT020 BKN040 PROB30 INTER 2206/2212 9000 SHRA BKN016 OVC038